Terminal Aerodrome Forecast
Issued by NWS

Home | Current Version | Previous Version | Text Only | Print | Product List | Glossary On
Versions: 1 2 3 4 5 6 7 8 9 10 11 12 13
700
FTUS45 KRIW 231722
TAFCPR
TAF
KCPR 231722Z 2318/2418 05006KT P6SM BKN070
     FM232300 03009KT 4SM -SHSN BKN025
     FM240600 24011KT P6SM FEW025 SCT060
     FM241500 25018G27KT P6SM SCT090=

USA.gov is the U.S. government's official web portal to all federal, state and local government web resources and services.